Time;durP1;ratioP1;P1;durP2;ratioP2;P2;SDS_P1;SDS_P2;PMS_P1;PMS_P2;Temp;Humidity;BMP_temperature;BMP_pressure;BME280_temperature;BME280_humidity;BME280_pressure;Samples;Min_cycle;Max_cycle;Signal;HPM_P1;HPM_P2
2023/10/25 00:00:58;;;;;;;3.10;1.30;;;;;;;19.50;51.02;100120.66;5006513;28;20037;-70
2023/10/25 00:03:23;;;;;;;3.17;1.17;;;;;;;19.48;51.02;100109.38;5007904;28;20037;-69
2023/10/25 00:05:49;;;;;;;3.50;1.30;;;;;;;19.47;50.98;100115.66;5010462;28;20129;-69
2023/10/25 00:08:14;;;;;;;3.35;1.58;;;;;;;19.46;50.90;100114.00;5010265;28;20297;-70
2023/10/25 00:10:39;;;;;;;3.20;1.30;;;;;;;19.47;50.67;100113.03;5010053;28;20037;-70
2023/10/25 00:13:05;;;;;;;5.53;1.20;;;;;;;19.46;51.03;100105.25;5010398;28;20081;-69
2023/10/25 00:15:31;;;;;;;4.50;1.40;;;;;;;19.45;50.98;100101.75;5009618;28;20549;-70
2023/10/25 00:17:56;;;;;;;4.32;1.40;;;;;;;19.44;50.90;100102.75;5010101;28;20471;-68
2023/10/25 00:20:21;;;;;;;3.67;1.40;;;;;;;19.44;50.78;100101.91;5009736;28;20045;-70
2023/10/25 00:22:47;;;;;;;3.50;1.30;;;;;;;19.43;50.72;100095.81;5010253;28;20026;-70
2023/10/25 00:25:12;;;;;;;4.05;1.38;;;;;;;19.43;50.78;100094.97;5009708;28;20042;-69
2023/10/25 00:27:37;;;;;;;3.53;1.47;;;;;;;19.43;50.63;100092.34;5010055;28;20030;-69
2023/10/25 00:30:03;;;;;;;4.20;1.52;;;;;;;19.39;50.67;100092.63;5008779;28;20260;-70
2023/10/25 00:32:29;;;;;;;3.60;1.30;;;;;;;19.40;50.70;100094.28;5009575;28;20410;-69
2023/10/25 00:34:54;;;;;;;4.03;1.33;;;;;;;19.42;50.66;100103.88;5009337;28;20058;-69
2023/10/25 00:37:19;;;;;;;4.78;1.48;;;;;;;19.40;50.53;100098.75;5009582;28;20057;-69
2023/10/25 00:39:44;;;;;;;2.95;1.38;;;;;;;19.41;50.55;100100.41;5009500;28;20382;-69
2023/10/25 00:42:10;;;;;;;3.35;1.55;;;;;;;19.38;50.39;100100.72;5007654;28;20029;-69
2023/10/25 00:44:35;;;;;;;3.78;1.48;;;;;;;19.39;50.60;100097.91;5009680;28;20026;-69
2023/10/25 00:47:01;;;;;;;4.07;1.50;;;;;;;19.38;50.66;100101.53;5009302;28;20057;-69
2023/10/25 00:49:27;;;;;;;5.38;1.80;;;;;;;19.37;50.63;100102.50;5009541;28;20040;-69
2023/10/25 00:51:53;;;;;;;4.63;1.70;;;;;;;19.36;50.47;100098.22;5008449;28;20124;-70
2023/10/25 00:54:20;;;;;;;3.35;1.40;;;;;;;19.36;50.29;100100.03;5009166;28;20471;-69
2023/10/25 00:56:47;;;;;;;2.67;1.15;;;;;;;19.36;50.29;100100.03;5009436;28;20466;-70
2023/10/25 00:59:13;;;;;;;3.70;1.90;;;;;;;19.34;50.45;100094.91;5009221;28;20414;-70
2023/10/25 01:01:41;;;;;;;3.70;1.40;;;;;;;19.31;50.40;100087.28;5008638;28;20489;-71
2023/10/25 01:04:06;;;;;;;2.72;1.15;;;;;;;19.34;50.32;100091.41;5009198;28;20032;-70
2023/10/25 01:06:31;;;;;;;3.67;1.40;;;;;;;19.33;50.40;100080.03;5009101;28;20026;-69
2023/10/25 01:08:57;;;;;;;3.38;1.30;;;;;;;19.32;50.32;100078.34;5009175;28;20049;-69
2023/10/25 01:11:22;;;;;;;2.58;1.20;;;;;;;19.31;50.30;100082.00;5008577;28;20034;-69
2023/10/25 01:13:47;;;;;;;4.85;1.38;;;;;;;19.31;50.18;100079.34;5009340;28;20026;-69
2023/10/25 01:16:13;;;;;;;2.70;1.58;;;;;;;19.31;50.29;100079.34;5008872;28;20034;-70
2023/10/25 01:18:38;;;;;;;4.28;1.67;;;;;;;19.31;50.29;100071.44;5009195;28;20030;-69
2023/10/25 01:21:04;;;;;;;4.40;1.65;;;;;;;19.29;50.11;100076.00;5008785;28;20109;-69
2023/10/25 01:23:29;;;;;;;3.80;1.40;;;;;;;19.30;50.22;100068.94;5008771;28;20072;-70
2023/10/25 01:25:55;;;;;;;3.53;1.33;;;;;;;19.28;50.15;100062.97;5007961;28;20085;-69
2023/10/25 01:28:20;;;;;;;4.55;1.60;;;;;;;19.29;50.07;100059.34;5008827;28;20555;-70
2023/10/25 01:30:46;;;;;;;3.25;1.20;;;;;;;19.27;50.15;100050.75;5008679;28;20537;-69
2023/10/25 01:33:12;;;;;;;3.20;1.30;;;;;;;19.27;50.10;100048.94;5008423;28;20100;-69
2023/10/25 01:35:38;;;;;;;2.63;1.20;;;;;;;19.26;49.82;100034.03;5008325;28;20515;-69
2023/10/25 01:38:04;;;;;;;3.65;1.15;;;;;;;19.27;50.09;100040.19;5008775;28;20026;-69
2023/10/25 01:40:29;;;;;;;3.40;1.25;;;;;;;19.25;50.10;100036.84;5008527;28;20037;-68
2023/10/25 01:42:54;;;;;;;3.90;1.45;;;;;;;19.26;49.96;100035.88;5007832;28;20022;-70
2023/10/25 01:45:24;;;;;;;4.63;1.60;;;;;;;19.24;50.25;100025.44;5008444;28;20022;-69
2023/10/25 01:47:50;;;;;;;3.15;1.30;;;;;;;19.25;49.90;100023.63;5008349;28;20132;-70
2023/10/25 01:50:16;;;;;;;3.13;1.40;;;;;;;19.24;50.17;100028.09;5008150;28;20112;-69
2023/10/25 01:52:42;;;;;;;2.67;1.10;;;;;;;19.23;49.87;100018.50;5008183;28;20065;-70
2023/10/25 01:55:07;;;;;;;4.28;1.40;;;;;;;19.24;49.73;100024.63;5008089;28;20068;-69
2023/10/25 01:57:32;;;;;;;3.78;1.50;;;;;;;19.23;49.78;100015.03;5008108;28;20108;-70
2023/10/25 01:59:58;;;;;;;2.90;1.15;;;;;;;19.23;49.81;100021.13;5008212;28;20454;-70
2023/10/25 02:02:23;;;;;;;4.70;1.60;;;;;;;19.21;49.84;100008.09;5008037;28;20033;-69
2023/10/25 02:04:49;;;;;;;4.00;1.30;;;;;;;19.22;49.91;100011.56;5008011;28;20030;-70
2023/10/25 02:07:14;;;;;;;3.78;1.40;;;;;;;19.20;49.82;100011.72;5007787;28;20422;-70
2023/10/25 02:09:39;;;;;;;3.00;1.50;;;;;;;19.19;49.82;100012.69;5008130;28;20080;-69
2023/10/25 02:12:05;;;;;;;3.17;1.25;;;;;;;19.20;49.76;100009.09;5008016;28;20029;-70
2023/10/25 02:14:31;;;;;;;2.55;1.17;;;;;;;19.19;49.72;100014.53;5007921;28;20442;-69
2023/10/25 02:16:57;;;;;;;3.67;1.27;;;;;;;19.19;49.76;100009.22;5007708;28;20036;-69
2023/10/25 02:19:22;;;;;;;2.63;1.05;;;;;;;19.19;49.87;99998.66;5007613;28;20021;-69
2023/10/25 02:21:47;;;;;;;3.85;1.27;;;;;;;19.20;49.84;99995.88;5007758;28;20038;-69
2023/10/25 02:24:15;;;;;;;2.67;1.10;;;;;;;19.17;49.70;99990.06;5007557;28;20113;-69
2023/10/25 02:26:41;;;;;;;4.78;1.30;;;;;;;19.19;49.52;99983.66;5007066;28;20080;-71
2023/10/25 02:29:07;;;;;;;4.03;1.55;;;;;;;19.18;49.67;99983.78;5008097;28;20103;-70
2023/10/25 02:31:33;;;;;;;2.63;1.05;;;;;;;19.18;49.74;99983.78;5007506;28;20474;-69
2023/10/25 02:33:58;;;;;;;4.20;1.23;;;;;;;19.16;49.72;99977.84;5007599;28;20482;-69
2023/10/25 02:36:23;;;;;;;3.47;1.10;;;;;;;19.15;49.67;99973.53;5007179;28;20042;-70
2023/10/25 02:38:49;;;;;;;3.17;1.17;;;;;;;19.15;49.73;99966.47;5007828;28;20474;-69
2023/10/25 02:41:15;;;;;;;3.80;1.10;;;;;;;19.14;49.80;99964.78;5006514;28;20026;-69
2023/10/25 02:43:41;;;;;;;3.63;1.38;;;;;;;19.17;49.53;99963.66;5007186;28;20109;-70
2023/10/25 02:46:09;;;;;;;3.42;1.10;;;;;;;19.16;49.73;99962.00;5007359;28;20105;-69
2023/10/25 02:48:36;;;;;;;2.42;1.17;;;;;;;19.13;49.73;99960.47;5007329;28;20042;-69
2023/10/25 02:51:02;;;;;;;2.83;1.20;;;;;;;19.15;49.45;99958.53;5007454;28;20041;-69
2023/10/25 02:53:28;;;;;;;3.88;1.40;;;;;;;19.14;49.63;99953.41;5007497;28;20080;-70
2023/10/25 02:56:07;;;;;;;3.35;1.30;;;;;;;19.13;49.76;99955.19;5006420;28;20034;-70
2023/10/25 02:58:33;;;;;;;2.75;1.10;;;;;;;19.13;49.69;99947.28;5007237;28;20076;-70
2023/10/25 03:00:59;;;;;;;3.75;1.20;;;;;;;19.14;49.90;99942.84;5006973;28;20042;-69
2023/10/25 03:03:27;;;;;;;3.35;1.10;;;;;;;19.12;49.68;99944.78;5007171;28;20390;-70
2023/10/25 03:05:52;;;;;;;3.00;1.10;;;;;;;19.12;49.71;99935.06;5007303;28;20105;-70
2023/10/25 03:08:17;;;;;;;4.13;1.30;;;;;;;19.12;49.64;99928.94;5007182;28;20109;-70
2023/10/25 03:10:43;;;;;;;2.47;0.95;;;;;;;19.11;49.69;99922.00;5006906;28;20059;-69
2023/10/25 03:13:08;;;;;;;3.28;1.40;;;;;;;19.12;49.77;99918.38;5007122;28;20053;-69
2023/10/25 03:15:33;;;;;;;2.63;1.20;;;;;;;19.12;49.77;99916.59;5006790;28;20030;-69
2023/10/25 03:17:59;;;;;;;2.50;0.95;;;;;;;19.09;49.71;99914.25;5007256;28;20478;-69
2023/10/25 03:20:24;;;;;;;5.60;1.17;;;;;;;19.11;49.96;99912.28;5007209;28;20030;-69
2023/10/25 03:22:49;;;;;;;2.90;1.30;;;;;;;19.10;49.78;99910.59;5007050;28;20030;-68
2023/10/25 03:25:15;;;;;;;2.95;1.10;;;;;;;19.10;49.70;99907.13;5007033;28;21553;-68
2023/10/25 03:27:40;;;;;;;2.38;1.10;;;;;;;19.08;49.74;99906.47;5006823;28;20038;-69
2023/10/25 03:30:06;;;;;;;3.58;1.20;;;;;;;19.10;49.83;99909.78;5006644;28;20072;-69
2023/10/25 03:32:31;;;;;;;2.83;1.10;;;;;;;19.09;49.84;99903.69;5006816;28;20417;-68
2023/10/25 03:34:57;;;;;;;3.05;1.10;;;;;;;19.11;49.69;99906.16;5006342;28;20178;-69
2023/10/25 03:37:23;;;;;;;3.10;1.20;;;;;;;19.09;49.84;99894.91;5006884;28;20107;-69
2023/10/25 03:39:48;;;;;;;3.83;1.20;;;;;;;19.09;49.83;99903.69;5009921;28;20034;-69
2023/10/25 03:42:14;;;;;;;2.00;0.90;;;;;;;19.09;50.01;99900.19;5010462;28;20030;-68
2023/10/25 03:44:39;;;;;;;2.55;1.05;;;;;;;19.07;49.88;99902.16;5010875;28;20030;-69
2023/10/25 03:47:04;;;;;;;2.58;1.20;;;;;;;19.09;49.91;99900.19;5010548;28;20041;-69
2023/10/25 03:49:29;;;;;;;2.75;1.10;;;;;;;19.07;49.78;99895.06;5010200;28;20402;-69
2023/10/25 03:51:55;;;;;;;3.17;1.10;;;;;;;19.08;49.63;99901.19;5010644;28;20117;-69
2023/10/25 03:54:20;;;;;;;3.75;1.08;;;;;;;19.06;49.82;99890.78;5010537;28;20255;-68
2023/10/25 03:56:46;;;;;;;3.70;1.20;;;;;;;19.06;49.84;99885.50;5010481;28;20390;-69
2023/10/25 03:59:11;;;;;;;2.55;1.00;;;;;;;19.07;49.65;99881.84;5010356;28;20087;-69
2023/10/25 04:01:38;;;;;;;2.45;0.98;;;;;;;19.06;50.06;99884.66;5010407;28;20035;-69
2023/10/25 04:04:03;;;;;;;2.72;0.93;;;;;;;19.05;49.94;99880.38;5010334;28;20034;-69
2023/10/25 04:06:28;;;;;;;2.58;1.10;;;;;;;19.07;50.00;99881.03;5009864;28;20036;-69
2023/10/25 04:08:54;;;;;;;3.03;1.30;;;;;;;19.05;49.75;99886.47;5009915;28;20559;-68
2023/10/25 04:11:19;;;;;;;2.88;1.30;;;;;;;19.05;49.93;99878.56;5009929;28;20042;-68
2023/10/25 04:13:44;;;;;;;2.22;1.00;;;;;;;19.03;49.81;99880.53;5010575;28;20034;-70
2023/10/25 04:16:10;;;;;;;3.75;1.23;;;;;;;19.03;49.82;99873.44;5008766;28;20049;-69
2023/10/25 04:18:36;;;;;;;3.83;1.20;;;;;;;19.02;49.89;99873.56;5010020;28;20359;-69
2023/10/25 04:21:03;;;;;;;3.08;1.10;;;;;;;19.05;49.89;99881.19;5008997;28;20128;-69
2023/10/25 04:23:31;;;;;;;2.13;1.00;;;;;;;19.04;49.84;99882.16;5009702;28;20037;-68
2023/10/25 04:26:10;;;;;;;2.53;0.90;;;;;;;19.02;49.89;99879.69;5009473;28;20088;-69
2023/10/25 04:28:37;;;;;;;4.45;1.20;;;;;;;19.01;49.94;99875.41;5009396;28;20065;-69
2023/10/25 04:31:02;;;;;;;3.28;1.20;;;;;;;19.02;49.84;99877.03;5009214;28;20037;-70
2023/10/25 04:33:28;;;;;;;2.45;1.00;;;;;;;19.03;49.79;99877.88;5009387;28;20089;-68
2023/10/25 04:35:53;;;;;;;2.00;1.00;;;;;;;19.01;49.94;99870.13;5009537;28;20040;-68
2023/10/25 04:38:19;;;;;;;2.88;1.10;;;;;;;19.00;49.93;99867.63;5005675;28;20371;-69
2023/10/25 04:40:44;;;;;;;5.70;1.10;;;;;;;19.01;49.72;99864.03;5009294;28;20026;-69
2023/10/25 04:43:10;;;;;;;2.83;1.00;;;;;;;19.00;49.99;99857.06;5008977;28;20034;-69
2023/10/25 04:45:36;;;;;;;3.28;1.00;;;;;;;19.00;49.75;99862.34;5009101;28;20038;-71
2023/10/25 04:48:01;;;;;;;3.17;1.35;;;;;;;18.99;50.00;99850.13;5009536;28;20109;-69
2023/10/25 04:50:32;;;;;;;4.30;1.13;;;;;;;18.99;49.92;99843.03;5008918;28;20049;-68
2023/10/25 04:52:57;;;;;;;2.63;1.10;;;;;;;19.00;50.00;99838.59;5009249;28;20029;-69
2023/10/25 04:55:26;;;;;;;2.33;1.08;;;;;;;19.00;49.93;99838.59;5009369;28;20448;-69
2023/10/25 04:57:51;;;;;;;3.10;1.15;;;;;;;18.99;50.06;99832.47;5007895;28;20030;-69
2023/10/25 05:00:16;;;;;;;3.13;1.00;;;;;;;19.00;50.27;99828.84;5009436;28;20468;-70
2023/10/25 05:02:42;;;;;;;3.00;1.05;;;;;;;19.00;49.95;99826.19;5007919;28;20033;-69
2023/10/25 05:05:08;;;;;;;4.45;1.33;;;;;;;18.99;50.13;99821.94;5009263;28;20458;-69
2023/10/25 05:07:35;;;;;;;2.38;1.00;;;;;;;18.98;49.98;99822.91;5009085;28;20112;-69
2023/10/25 05:10:00;;;;;;;3.17;1.17;;;;;;;19.00;50.01;99820.09;5009168;28;20036;-68
2023/10/25 05:12:37;;;;;;;2.53;1.15;;;;;;;18.99;50.23;99810.50;5009043;28;20040;-68
2023/10/25 05:15:04;;;;;;;4.10;1.20;;;;;;;18.97;49.98;99805.38;5009301;28;20072;-69
2023/10/25 05:17:29;;;;;;;2.63;1.10;;;;;;;18.99;50.14;99803.44;5009219;28;20556;-69
2023/10/25 05:19:55;;;;;;;3.30;1.30;;;;;;;18.98;50.17;99800.94;5009117;28;20488;-69
2023/10/25 05:22:25;;;;;;;2.58;1.20;;;;;;;18.98;50.04;99801.78;5008871;28;20482;-70
2023/10/25 05:24:51;;;;;;;3.33;1.17;;;;;;;19.01;50.03;99795.38;5009055;28;20026;-70
2023/10/25 05:27:16;;;;;;;2.75;1.00;;;;;;;19.02;50.30;99794.38;5008638;28;20076;-69
2023/10/25 05:29:42;;;;;;;2.63;1.10;;;;;;;19.03;50.44;99791.56;5008284;28;20038;-69
2023/10/25 05:32:12;;;;;;;2.60;1.00;;;;;;;19.05;50.30;99793.22;5004951;28;20037;-70
2023/10/25 05:34:38;;;;;;;2.80;1.20;;;;;;;19.03;50.36;99780.19;5008187;28;20046;-70
2023/10/25 05:37:04;;;;;;;3.92;1.13;;;;;;;19.05;50.54;99785.31;5008173;28;20026;-70
2023/10/25 05:39:29;;;;;;;4.10;1.85;;;;;;;19.05;50.58;99772.09;5008368;28;20075;-70
2023/10/25 05:41:57;;;;;;;3.00;1.20;;;;;;;19.05;50.80;99772.94;5008282;28;20075;-70
2023/10/25 05:44:22;;;;;;;3.17;1.17;;;;;;;19.05;50.71;99769.47;5008710;28;20108;-69
2023/10/25 05:46:48;;;;;;;2.30;1.00;;;;;;;19.03;50.65;99766.97;5008080;28;20160;-70
2023/10/25 05:49:13;;;;;;;3.75;1.38;;;;;;;19.05;50.79;99772.94;5008303;28;20022;-69
2023/10/25 05:51:39;;;;;;;2.35;1.05;;;;;;;19.06;50.96;99773.75;5007730;28;20088;-68
2023/10/25 05:54:05;;;;;;;3.67;1.13;;;;;;;19.05;51.08;99769.47;5007222;28;20038;-70
2023/10/25 05:56:30;;;;;;;2.92;0.90;;;;;;;19.07;51.06;99768.31;5008145;28;20088;-70
2023/10/25 05:58:56;;;;;;;3.65;0.98;;;;;;;19.08;51.13;99762.06;5007910;28;20037;-70
2023/10/25 06:01:37;;;;;;;3.85;1.30;;;;;;;19.12;51.24;99765.19;5006878;28;20038;-71
2023/10/25 06:04:04;;;;;;;3.03;1.10;;;;;;;19.11;51.41;99764.38;5008041;28;20038;-70
2023/10/25 06:06:30;;;;;;;2.58;1.00;;;;;;;19.12;51.32;99763.41;5007898;28;20037;-69
2023/10/25 06:08:55;;;;;;;4.75;1.40;;;;;;;19.11;51.63;99766.22;5007876;28;20033;-70
2023/10/25 06:11:21;;;;;;;3.72;1.20;;;;;;;19.14;51.62;99756.16;5007228;28;20120;-69
2023/10/25 06:13:47;;;;;;;5.57;1.10;;;;;;;19.15;51.91;99755.16;5007766;28;20030;-70
2023/10/25 06:16:13;;;;;;;2.25;0.95;;;;;;;19.17;51.93;99757.66;5007608;28;20037;-70
2023/10/25 06:18:38;;;;;;;3.83;1.20;;;;;;;19.18;52.07;99749.56;5006995;28;20040;-69
2023/10/25 06:21:04;;;;;;;3.35;1.17;;;;;;;19.19;51.88;99740.66;5007604;28;20113;-69
2023/10/25 06:23:29;;;;;;;3.67;1.27;;;;;;;19.21;52.29;99740.50;5007660;28;20033;-69
2023/10/25 06:25:54;;;;;;;4.05;0.95;;;;;;;19.23;51.89;99741.16;5007656;28;20029;-68
2023/10/25 06:28:19;;;;;;;3.90;1.17;;;;;;;19.24;51.80;99732.25;5007381;28;20034;-68
2023/10/25 06:30:45;;;;;;;2.85;1.20;;;;;;;19.25;51.97;99730.44;5006828;28;20724;-69
2023/10/25 06:33:11;;;;;;;3.20;1.30;;;;;;;19.25;52.14;99727.78;5007364;28;20045;-69
2023/10/25 06:35:36;;;;;;;4.65;1.30;;;;;;;19.26;52.03;99725.00;5007684;28;20026;-69
2023/10/25 06:38:02;;;;;;;2.63;1.13;;;;;;;19.27;51.96;99724.00;5007581;28;20121;-70
2023/10/25 06:40:28;;;;;;;2.92;0.95;;;;;;;19.28;51.86;99723.03;5007127;28;20030;-69
2023/10/25 06:42:53;;;;;;;6.22;1.10;;;;;;;19.26;52.03;99721.53;5006062;28;20046;-69
2023/10/25 06:45:19;;;;;;;4.45;1.10;;;;;;;19.28;51.92;99715.09;5005892;28;20033;-69
2023/10/25 06:47:44;;;;;;;4.25;1.15;;;;;;;19.32;51.84;99710.31;5007641;28;21103;-69
2023/10/25 06:50:14;;;;;;;3.50;1.08;;;;;;;19.31;51.64;99703.38;5007383;28;20756;-70
2023/10/25 06:52:39;;;;;;;6.15;1.83;;;;;;;19.32;51.65;99697.94;5007087;28;20041;-70
2023/10/25 06:55:05;;;;;;;2.97;0.90;;;;;;;19.32;51.57;99697.94;5007462;28;20049;-69
2023/10/25 06:57:31;;;;;;;2.85;1.15;;;;;;;19.33;51.81;99696.97;5007266;28;20363;-70
2023/10/25 06:59:57;;;;;;;8.32;1.13;;;;;;;19.33;51.60;99694.31;5007297;28;20504;-70
2023/10/25 07:02:38;;;;;;;4.78;1.00;;;;;;;19.33;51.21;99689.03;5005510;28;20355;-69
2023/10/25 07:05:10;;;;;;;3.65;1.15;;;;;;;19.32;51.55;99684.72;5006794;28;20029;-69
2023/10/25 07:07:36;;;;;;;2.45;1.00;;;;;;;19.32;51.47;99676.81;5007215;28;20124;-70
2023/10/25 07:10:03;;;;;;;4.10;1.20;;;;;;;19.35;51.41;99680.94;5006725;28;20096;-69
2023/10/25 07:12:32;;;;;;;2.28;1.10;;;;;;;19.30;51.59;99665.56;4998160;28;20052;-70
2023/10/25 07:14:57;;;;;;;3.33;1.20;;;;;;;19.28;51.70;99670.22;5006376;28;20033;-69
2023/10/25 07:17:24;;;;;;;5.40;1.25;;;;;;;19.23;52.10;99669.84;5005796;28;20038;-69
2023/10/25 07:19:49;;;;;;;4.32;1.13;;;;;;;19.16;52.00;99674.94;5006332;28;20025;-69
2023/10/25 07:22:15;;;;;;;3.28;1.30;;;;;;;19.14;51.75;99668.19;5006045;28;20040;-70
2023/10/25 07:24:40;;;;;;;4.22;1.20;;;;;;;19.10;52.11;99672.09;5006223;28;20037;-69
2023/10/25 07:27:05;;;;;;;5.30;1.40;;;;;;;19.06;52.24;99670.75;5005883;28;20030;-69
2023/10/25 07:29:31;;;;;;;2.70;0.93;;;;;;;19.03;52.46;99664.00;5004619;28;20038;-69
2023/10/25 07:31:56;;;;;;;4.07;1.23;;;;;;;19.02;52.58;99651.78;5004268;28;20137;-69
2023/10/25 07:34:21;;;;;;;4.03;1.20;;;;;;;19.01;52.41;99658.88;5004968;28;20467;-69
2023/10/25 07:36:47;;;;;;;4.45;1.15;;;;;;;19.02;52.59;99651.78;5003221;28;20058;-69
2023/10/25 07:39:15;;;;;;;2.80;1.10;;;;;;;19.01;52.34;99648.31;5004421;28;20965;-69
2023/10/25 07:41:40;;;;;;;5.60;1.15;;;;;;;19.01;52.37;99648.31;5006010;28;20038;-68
2023/10/25 07:44:05;;;;;;;3.35;1.08;;;;;;;19.03;52.39;99643.69;5004465;28;20042;-68
2023/10/25 07:46:31;;;;;;;4.55;1.30;;;;;;;19.05;52.49;99640.91;5005957;28;20125;-69
2023/10/25 07:48:56;;;;;;;4.27;1.30;;;;;;;19.05;52.18;99632.97;5006056;28;20041;-68
2023/10/25 07:51:21;;;;;;;4.97;1.20;;;;;;;19.03;52.11;99630.50;5004633;28;20297;-69
2023/10/25 07:53:46;;;;;;;4.75;1.30;;;;;;;19.03;52.19;99619.13;5005507;28;20398;-69
2023/10/25 07:56:12;;;;;;;4.10;1.30;;;;;;;19.02;52.23;99614.81;5005665;28;20174;-69
2023/10/25 07:58:37;;;;;;;4.00;1.15;;;;;;;19.05;52.16;99611.03;5005942;28;20022;-68
2023/10/25 08:01:02;;;;;;;4.72;1.40;;;;;;;19.04;52.23;99596.97;5004422;28;20099;-70
2023/10/25 08:03:28;;;;;;;4.38;1.20;;;;;;;19.06;52.14;99591.53;5005902;28;20056;-68
2023/10/25 08:05:54;;;;;;;3.63;1.10;;;;;;;19.09;52.07;99600.00;5005653;28;20451;-68
2023/10/25 08:08:20;;;;;;;5.43;1.10;;;;;;;19.10;52.11;99595.53;5005130;28;20033;-66
2023/10/25 08:10:45;;;;;;;3.17;1.05;;;;;;;19.08;51.96;99593.06;5005597;28;20030;-69
2023/10/25 08:13:11;;;;;;;3.88;1.27;;;;;;;19.09;52.07;99592.06;5005837;28;20486;-69
2023/10/25 08:15:36;;;;;;;4.18;1.48;;;;;;;19.08;52.23;99586.94;5005926;28;20075;-69
2023/10/25 08:18:02;;;;;;;3.08;0.98;;;;;;;19.07;52.36;99582.66;5005523;28;20112;-69
2023/10/25 08:20:28;;;;;;;3.05;0.90;;;;;;;19.04;52.01;99575.88;5005547;28;20045;-69
2023/10/25 08:22:55;;;;;;;3.10;1.00;;;;;;;19.06;52.21;99581.81;5005715;28;20042;-70
2023/10/25 08:25:21;;;;;;;2.85;1.15;;;;;;;19.06;52.10;99567.78;5007820;28;20037;-68
2023/10/25 08:27:46;;;;;;;2.25;1.10;;;;;;;19.08;52.05;99566.66;5008871;28;20034;-70
2023/10/25 08:30:12;;;;;;;3.63;1.10;;;;;;;19.09;52.00;99567.47;5009357;28;20030;-70
2023/10/25 08:32:37;;;;;;;2.70;1.10;;;;;;;19.08;52.07;99563.19;5008900;28;20034;-69
2023/10/25 08:35:03;;;;;;;2.28;1.00;;;;;;;19.10;51.83;99563.84;5008745;28;20077;-70
2023/10/25 08:37:28;;;;;;;3.83;0.93;;;;;;;19.09;52.12;99549.81;5008575;28;20037;-70
2023/10/25 08:39:54;;;;;;;2.67;1.15;;;;;;;19.08;51.85;99548.16;5009076;28;20044;-68
2023/10/25 08:42:19;;;;;;;3.20;1.02;;;;;;;19.10;52.01;99540.91;5008444;28;20022;-69
2023/10/25 08:44:46;;;;;;;3.00;1.63;;;;;;;19.09;52.12;99523.41;5008051;28;20077;-69
2023/10/25 08:47:11;;;;;;;4.85;1.20;;;;;;;19.10;52.07;99527.69;5008872;28;20073;-69
2023/10/25 08:49:37;;;;;;;6.38;1.52;;;;;;;19.10;52.19;99538.25;5008998;28;20064;-69
2023/10/25 08:52:03;;;;;;;3.30;1.08;;;;;;;19.09;52.36;99533.13;5008195;28;20038;-69
2023/10/25 08:54:29;;;;;;;4.55;1.20;;;;;;;19.08;52.02;99524.41;5008438;28;20025;-70
2023/10/25 08:56:54;;;;;;;3.03;1.05;;;;;;;19.10;52.14;99518.94;5008590;28;20670;-69
2023/10/25 08:59:20;;;;;;;3.35;1.10;;;;;;;19.09;52.26;99507.56;5008425;28;20050;-70
2023/10/25 09:01:48;;;;;;;3.30;1.05;;;;;;;19.10;52.04;99506.56;5006551;28;20040;-69
2023/10/25 09:04:13;;;;;;;4.45;1.08;;;;;;;19.07;52.09;99498.97;5008221;28;20092;-69
2023/10/25 09:06:39;;;;;;;2.95;1.00;;;;;;;19.08;52.09;99498.00;5007837;28;20467;-69
2023/10/25 09:09:07;;;;;;;3.15;1.00;;;;;;;19.09;52.04;99504.94;5008491;28;20054;-70
2023/10/25 09:11:45;;;;;;;3.10;0.85;;;;;;;19.08;52.24;99502.44;5007182;28;20037;-69
2023/10/25 09:14:13;;;;;;;4.78;1.10;;;;;;;19.09;52.11;99499.66;5007849;28;20112;-71
2023/10/25 09:16:41;;;;;;;4.05;1.05;;;;;;;19.10;52.18;99498.66;5007638;28;20459;-69
2023/10/25 09:19:06;;;;;;;3.70;1.08;;;;;;;19.09;52.32;99504.94;5007650;28;20051;-70
2023/10/25 09:21:31;;;;;;;5.82;1.23;;;;;;;19.09;52.08;99504.09;5005552;28;20121;-70
2023/10/25 09:24:06;;;;;;;4.93;1.10;;;;;;;19.10;52.50;99503.94;5006536;28;20061;-68
2023/10/25 09:26:36;;;;;;;3.13;1.02;;;;;;;19.10;52.52;99508.38;5007733;28;20076;-68
2023/10/25 09:29:02;;;;;;;4.32;1.30;;;;;;;19.09;52.40;99496.16;5007311;28;20038;-68
2023/10/25 09:31:31;;;;;;;2.60;0.90;;;;;;;19.09;52.35;99493.53;5008120;28;20092;-69
2023/10/25 09:34:00;;;;;;;4.38;1.52;;;;;;;19.08;52.31;99481.34;5008485;28;20054;-68
2023/10/25 09:36:33;;;;;;;4.53;1.23;;;;;;;19.07;52.61;99471.75;5007705;28;20034;-69
2023/10/25 09:38:59;;;;;;;2.83;1.00;;;;;;;19.08;52.55;99470.78;5008630;28;20103;-68
2023/10/25 09:41:26;;;;;;;3.30;0.98;;;;;;;19.08;52.62;99476.06;5007699;28;20050;-68
2023/10/25 09:44:09;;;;;;;2.95;1.10;;;;;;;19.05;52.75;99456.06;5003755;28;20049;-69
2023/10/25 09:46:35;;;;;;;3.35;1.00;;;;;;;19.09;52.41;99448.63;5008503;28;20033;-68
2023/10/25 09:49:14;;;;;;;4.18;1.10;;;;;;;19.06;52.67;99447.16;5008195;28;20057;-70
2023/10/25 09:52:05;;;;;;;3.00;0.95;;;;;;;19.07;52.90;99445.34;5007668;28;20041;-71
2023/10/25 09:54:35;;;;;;;5.45;1.17;;;;;;;19.10;52.60;99442.38;5007640;28;20485;-68
2023/10/25 09:57:02;;;;;;;4.25;1.10;;;;;;;19.09;52.95;99438.06;5003969;28;20026;-68
2023/10/25 09:59:32;;;;;;;6.60;1.20;;;;;;;19.08;52.70;99442.53;5005644;28;20038;-69
2023/10/25 10:02:03;;;;;;;4.60;1.30;;;;;;;19.08;52.99;99428.53;5005803;28;20553;-69
2023/10/25 10:04:46;;;;;;;5.30;1.20;;;;;;;19.18;52.62;99426.53;5007415;28;20103;-69
2023/10/25 10:07:23;;;;;;;2.75;1.08;;;;;;;19.26;52.55;99420.41;5007843;28;20080;-70
2023/10/25 10:10:00;;;;;;;3.10;1.10;;;;;;;19.33;52.16;99413.50;5008224;28;20038;-69
2023/10/25 10:12:26;;;;;;;7.88;1.10;;;;;;;19.39;52.00;99412.78;5007420;28;20030;-69
2023/10/25 10:14:52;;;;;;;8.55;1.45;;;;;;;19.41;51.90;99408.19;5008244;28;20041;-69
2023/10/25 10:17:18;;;;;;;7.20;1.23;;;;;;;19.41;51.72;99394.97;5008387;28;20030;-68
2023/10/25 10:19:46;;;;;;;4.10;1.27;;;;;;;19.39;51.88;99396.94;5008210;28;20041;-69
2023/10/25 10:22:16;;;;;;;4.13;1.13;;;;;;;19.38;51.36;99393.50;5007718;28;21090;-70
2023/10/25 10:24:48;;;;;;;3.05;1.10;;;;;;;19.42;51.67;99385.22;5007931;28;20030;-69
2023/10/25 10:27:15;;;;;;;3.42;1.00;;;;;;;19.38;51.66;99374.19;5007919;28;20042;-71
2023/10/25 10:29:42;;;;;;;3.28;1.00;;;;;;;19.39;51.60;99368.72;5007453;28;20033;-69
2023/10/25 10:32:09;;;;;;;3.85;1.10;;;;;;;19.38;51.47;99360.97;5007445;28;20489;-69
2023/10/25 10:34:50;;;;;;;3.15;1.15;;;;;;;19.35;51.52;99356.84;5007678;28;20482;-69
2023/10/25 10:37:19;;;;;;;4.00;1.10;;;;;;;19.37;51.57;99354.03;5007517;28;20045;-69
2023/10/25 10:39:56;;;;;;;2.10;0.85;;;;;;;19.37;51.37;99356.66;5007703;28;20057;-70
2023/10/25 10:42:30;;;;;;;4.25;1.00;;;;;;;19.35;51.60;99351.56;5007681;28;20042;-70
2023/10/25 10:44:57;;;;;;;5.32;1.00;;;;;;;19.34;51.49;99343.78;5007661;28;20037;-69
2023/10/25 10:47:41;;;;;;;3.47;1.27;;;;;;;19.30;51.51;99335.41;5006984;28;20069;-69
2023/10/25 10:50:10;;;;;;;4.90;1.23;;;;;;;19.35;51.55;99326.97;5007648;28;20455;-69
2023/10/25 10:52:35;;;;;;;3.58;1.00;;;;;;;19.34;51.45;99322.66;5007292;28;20033;-69
2023/10/25 10:55:01;;;;;;;3.88;1.13;;;;;;;19.34;51.75;99322.66;5007221;28;20040;-69
2023/10/25 10:57:26;;;;;;;2.08;0.85;;;;;;;19.30;51.44;99302.88;5007237;28;20032;-68
2023/10/25 10:59:53;;;;;;;4.00;1.17;;;;;;;19.29;51.38;99302.03;5007179;28;20026;-69
2023/10/25 11:02:19;;;;;;;3.50;1.00;;;;;;;19.29;51.41;99301.22;5005629;28;20048;-69
2023/10/25 11:04:44;;;;;;;3.80;0.90;;;;;;;19.28;51.46;99291.66;5007111;28;20458;-69
2023/10/25 11:07:09;;;;;;;3.25;1.10;;;;;;;19.26;51.52;99288.34;5007051;28;20033;-69
2023/10/25 11:09:34;;;;;;;2.72;1.10;;;;;;;19.26;51.68;99286.53;5005670;28;21698;-70
2023/10/25 11:12:08;;;;;;;2.67;0.98;;;;;;;19.24;51.83;99283.25;5006794;28;20042;-69
2023/10/25 11:14:43;;;;;;;3.63;1.00;;;;;;;19.25;51.50;99278.78;5007038;28;20033;-70
2023/10/25 11:17:09;;;;;;;3.38;1.15;;;;;;;19.25;51.53;99279.63;5006694;28;20069;-70
2023/10/25 11:19:34;;;;;;;3.97;1.23;;;;;;;19.24;51.34;99267.41;5007048;28;20038;-69
2023/10/25 11:22:00;;;;;;;3.97;0.95;;;;;;;19.24;51.55;99264.75;5006569;28;20100;-69
2023/10/25 11:24:26;;;;;;;2.53;1.08;;;;;;;19.20;51.46;99261.63;5006334;28;20038;-70
2023/10/25 11:26:52;;;;;;;4.10;1.08;;;;;;;19.20;51.63;99253.72;5006760;28;20483;-69
2023/10/25 11:29:18;;;;;;;3.55;0.90;;;;;;;19.23;51.67;99254.38;5006311;28;20030;-69